Time;durP1;ratioP1;P1;durP2;ratioP2;P2;SDS_P1;SDS_P2;PMS_P1;PMS_P2;Temp;Humidity;BMP_temperature;BMP_pressure;BME280_temperature;BME280_humidity;BME280_pressure;Samples;Min_cycle;Max_cycle;Signal;HPM_P1;HPM_P2
2022/05/14 00:02:02;;;;;;;;;;;;;;;19.81;58.03;99660.66;5404274;26;33955;-87
2022/05/14 00:04:31;;;;;;;;;;;;;;;19.39;59.16;99657.47;5408876;26;34513;-87
2022/05/14 00:06:59;;;;;;;;;;;;;;;19.46;59.03;99660.66;5407078;26;35034;-87
2022/05/14 00:09:28;;;;;;;;;;;;;;;19.88;57.85;99659.41;5404716;26;33853;-88
2022/05/14 00:14:44;;;;;;;;;;;;;;;19.67;58.59;99663.13;5404333;26;34007;-87
2022/05/14 00:17:12;;;;;;;;;;;;;;;19.76;58.32;99665.31;5406175;26;35119;-89
2022/05/14 00:19:41;;;;;;;;;;;;;;;19.49;59.09;99673.66;5408735;26;34840;-88
2022/05/14 00:22:10;;;;;;;;;;;;;;;19.76;58.37;99670.56;5404164;26;33748;-88
2022/05/14 00:24:38;;;;;;;;;;;;;;;19.88;57.81;99672.56;5402397;26;34170;-88
2022/05/14 00:27:07;;;;;;;;;;;;;;;19.47;59.16;99675.50;5402486;26;34947;-88
2022/05/14 00:29:35;;;;;;;;;;;;;;;19.45;59.10;99668.63;5410007;26;34412;-89
2022/05/14 00:32:06;;;;;;;;;;;;;;;19.72;58.22;99676.94;5404180;26;33617;-87
2022/05/14 00:34:34;;;;;;;;;;;;;;;19.60;58.66;99668.72;5404892;26;33984;-88
2022/05/14 00:37:03;;;;;;;;;;;;;;;19.73;58.28;99676.00;5404694;26;33635;-88
2022/05/14 00:39:32;;;;;;;;;;;;;;;19.87;57.68;99668.25;5403450;26;34174;-88
2022/05/14 00:42:00;;;;;;;;;;;;;;;19.71;58.46;99675.22;5409749;26;33235;-88
2022/05/14 00:44:28;;;;;;;;;;;;;;;19.19;60.07;99670.78;5403364;26;34396;-88
2022/05/14 00:46:58;;;;;;;;;;;;;;;19.58;58.67;99667.94;5404667;26;33964;-88
2022/05/14 00:49:29;;;;;;;;;;;;;;;19.82;57.98;99671.13;5403577;26;34414;-87
2022/05/14 00:51:58;;;;;;;;;;;;;;;19.68;58.47;99675.41;5410518;26;33618;-88
2022/05/14 00:54:28;;;;;;;;;;;;;;;19.69;58.41;99671.81;5405472;26;34149;-88
2022/05/14 00:56:58;;;;;;;;;;;;;;;19.43;59.37;99683.66;5404210;26;34062;-88
2022/05/14 00:59:27;;;;;;;;;;;;;;;19.64;58.62;99674.66;5405321;26;34127;-87
2022/05/14 01:01:58;;;;;;;;;;;;;;;19.74;58.45;99664.53;5404193;26;33908;-88
2022/05/14 01:04:30;;;;;;;;;;;;;;;19.40;59.25;99653.06;5408673;26;34556;-88
2022/05/14 01:07:00;;;;;;;;;;;;;;;19.33;59.59;99664.81;5404450;26;33779;-88
2022/05/14 01:12:52;;;;;;;;;;;;;;;19.10;60.58;99666.81;5394649;26;34893;-88
2022/05/14 01:15:22;;;;;;;;;;;;;;;19.29;59.89;99660.66;5403767;26;33237;-88
2022/05/14 01:17:51;;;;;;;;;;;;;;;18.92;61.04;99660.69;5404792;26;34090;-88
2022/05/14 01:20:21;;;;;;;;;;;;;;;18.96;61.01;99653.47;5409862;26;34342;-88
2022/05/14 01:22:57;;;;;;;;;;;;;;;18.98;61.07;99659.50;5409178;26;33158;-89
2022/05/14 01:28:15;;;;;;;;;;;;;;;18.92;61.51;99662.47;5403972;26;35069;-86
2022/05/14 01:30:45;;;;;;;;;;;;;;;19.03;61.13;99656.66;5404964;26;33945;-86
2022/05/14 01:33:16;;;;;;;;;;;;;;;19.01;61.25;99659.34;5404749;26;32245;-89
2022/05/14 01:35:45;;;;;;;;;;;;;;;18.99;61.38;99658.56;5410485;26;33937;-88
2022/05/14 01:38:14;;;;;;;;;;;;;;;18.93;61.61;99659.72;5403947;26;33962;-89
2022/05/14 01:40:43;;;;;;;;;;;;;;;19.15;60.85;99663.94;5404175;26;34490;-88
2022/05/14 01:43:12;;;;;;;;;;;;;;;19.05;61.26;99667.97;5403221;26;33508;-88
2022/05/14 01:45:41;;;;;;;;;;;;;;;18.90;61.90;99670.41;5409425;26;34734;-87
2022/05/14 01:48:10;;;;;;;;;;;;;;;19.01;61.47;99672.50;5404589;26;34262;-88
2022/05/14 01:50:39;;;;;;;;;;;;;;;18.95;61.84;99659.66;5407164;26;34742;-88
2022/05/14 01:53:07;;;;;;;;;;;;;;;19.19;61.02;99661.09;5404255;26;32511;-88
2022/05/14 01:55:36;;;;;;;;;;;;;;;18.98;61.50;99655.09;5409858;26;33848;-88
2022/05/14 01:58:36;;;;;;;;;;;;;;;19.05;61.37;99657.44;5404394;26;33634;-88
2022/05/14 02:00:55;;;;;;;;;;;;;;;18.84;62.02;99654.91;5404939;26;34920;-88
2022/05/14 02:03:24;;;;;;;;;;;;;;;18.87;62.20;99659.16;5404518;26;33182;-88
2022/05/14 02:05:52;;;;;;;;;;;;;;;18.91;61.92;99664.22;5404029;26;33531;-88
2022/05/14 02:08:21;;;;;;;;;;;;;;;18.72;62.73;99672.06;5410469;26;34988;-88
2022/05/14 02:10:50;;;;;;;;;;;;;;;18.96;62.12;99667.47;5404806;26;33592;-88
2022/05/14 02:13:19;;;;;;;;;;;;;;;18.90;62.11;99664.31;5403982;26;32999;-89
2022/05/14 02:15:48;;;;;;;;;;;;;;;18.92;62.08;99660.69;5403720;26;34674;-88
2022/05/14 02:18:19;;;;;;;;;;;;;;;18.82;62.42;99659.38;5403902;26;35020;-88
2022/05/14 02:20:47;;;;;;;;;;;;;;;18.95;62.03;99668.41;5409767;26;33433;-88
2022/05/14 02:23:16;;;;;;;;;;;;;;;18.97;61.91;99658.66;5403775;26;33519;-87
2022/05/14 02:25:45;;;;;;;;;;;;;;;18.88;62.12;99663.53;5402433;26;33609;-88
2022/05/14 02:28:13;;;;;;;;;;;;;;;18.77;62.56;99664.00;5403923;26;34313;-87
2022/05/14 02:30:48;;;;;;;;;;;;;;;18.68;62.77;99660.03;5407349;26;33650;-88
2022/05/14 02:33:18;;;;;;;;;;;;;;;18.55;63.29;99659.72;5409924;26;34239;-88
2022/05/14 02:35:47;;;;;;;;;;;;;;;18.72;62.67;99666.81;5404094;26;34304;-87
2022/05/14 02:38:16;;;;;;;;;;;;;;;18.64;63.00;99673.37;5404095;26;34948;-88
2022/05/14 02:40:44;;;;;;;;;;;;;;;18.50;63.42;99677.47;5403934;26;33843;-87
2022/05/14 02:43:14;;;;;;;;;;;;;;;18.63;63.12;99680.41;5409597;26;33571;-88
2022/05/14 02:45:42;;;;;;;;;;;;;;;18.63;62.86;99676.91;5403867;26;33810;-88
2022/05/14 02:48:11;;;;;;;;;;;;;;;18.71;62.70;99680.91;5404005;26;34936;-88
2022/05/14 02:50:41;;;;;;;;;;;;;;;18.62;63.00;99680.47;5405588;26;33866;-88
2022/05/14 02:53:10;;;;;;;;;;;;;;;18.34;63.99;99681.75;5404125;26;33321;-87
2022/05/14 02:55:38;;;;;;;;;;;;;;;18.24;64.50;99689.19;5409515;26;34889;-88
2022/05/14 02:58:07;;;;;;;;;;;;;;;18.38;64.02;99695.59;5404261;26;34343;-88
2022/05/14 03:00:35;;;;;;;;;;;;;;;18.14;64.95;99695.75;5404063;26;34171;-87
2022/05/14 03:03:04;;;;;;;;;;;;;;;17.97;65.47;99693.88;5403752;26;33555;-88
2022/05/14 03:05:32;;;;;;;;;;;;;;;18.23;64.78;99700.59;5388099;26;34154;-88
2022/05/14 03:08:02;;;;;;;;;;;;;;;18.30;64.36;99702.03;5404174;26;34274;-87
2022/05/14 03:10:31;;;;;;;;;;;;;;;18.22;64.88;99701.53;5404502;26;34829;-88
2022/05/14 03:13:03;;;;;;;;;;;;;;;18.17;65.06;99708.78;5404154;26;32845;-88
2022/05/14 03:15:31;;;;;;;;;;;;;;;18.25;64.62;99714.53;5403886;26;33990;-87
2022/05/14 03:18:00;;;;;;;;;;;;;;;18.34;64.19;99710.66;5409265;26;35039;-88
2022/05/14 03:20:28;;;;;;;;;;;;;;;18.42;63.71;99716.41;5403752;26;34163;-88
2022/05/14 03:22:57;;;;;;;;;;;;;;;18.63;62.85;99711.94;5405914;26;33495;-87
2022/05/14 03:25:27;;;;;;;;;;;;;;;18.55;63.32;99727.19;5403744;26;33907;-88
2022/05/14 03:27:55;;;;;;;;;;;;;;;18.57;63.28;99727.97;5403975;26;35066;-88
2022/05/14 03:30:24;;;;;;;;;;;;;;;18.49;63.63;99735.38;5410413;26;34175;-88
2022/05/14 03:32:53;;;;;;;;;;;;;;;18.46;63.64;99738.09;5405067;26;32843;-88
2022/05/14 03:35:22;;;;;;;;;;;;;;;18.64;63.04;99733.81;5404662;26;33939;-88
2022/05/14 03:37:50;;;;;;;;;;;;;;;18.72;62.76;99729.91;5405136;26;34227;-88
2022/05/14 03:40:19;;;;;;;;;;;;;;;18.44;63.78;99732.09;5404372;26;34742;-88
2022/05/14 03:42:48;;;;;;;;;;;;;;;18.50;63.63;99730.03;5410575;26;33559;-87
2022/05/14 03:45:17;;;;;;;;;;;;;;;18.45;63.70;99732.00;5403957;26;34291;-87
2022/05/14 03:47:47;;;;;;;;;;;;;;;18.31;64.37;99729.16;5404384;26;34908;-88
2022/05/14 03:50:18;;;;;;;;;;;;;;;18.29;64.29;99726.59;5404651;26;35288;-88
2022/05/14 03:52:47;;;;;;;;;;;;;;;18.26;64.61;99731.97;5405213;26;33785;-88
2022/05/14 03:55:16;;;;;;;;;;;;;;;18.21;64.90;99741.81;5409891;26;34225;-89
2022/05/14 03:57:45;;;;;;;;;;;;;;;18.21;64.96;99738.34;5404634;26;35052;-87
2022/05/14 04:00:19;;;;;;;;;;;;;;;18.29;64.79;99746.75;5404947;26;34715;-89
2022/05/14 04:02:48;;;;;;;;;;;;;;;18.39;64.32;99749.81;5406023;26;34431;-87
2022/05/14 04:05:16;;;;;;;;;;;;;;;18.44;64.07;99758.38;5404922;26;34827;-87
2022/05/14 04:07:46;;;;;;;;;;;;;;;18.42;64.38;99762.84;5409900;26;34291;-88
2022/05/14 04:10:16;;;;;;;;;;;;;;;18.28;64.82;99772.16;5404259;26;34278;-88
2022/05/14 04:12:44;;;;;;;;;;;;;;;18.16;65.30;99767.44;5404222;26;33276;-88
2022/05/14 04:15:13;;;;;;;;;;;;;;;18.22;65.11;99766.31;5404636;26;34867;-88
2022/05/14 04:17:44;;;;;;;;;;;;;;;18.18;65.58;99765.59;5404791;26;33923;-88
2022/05/14 04:20:13;;;;;;;;;;;;;;;18.42;64.62;99773.34;5408131;26;34720;-88
2022/05/14 04:22:48;;;;;;;;;;;;;;;18.32;64.90;99773.75;5410167;26;33827;-87
2022/05/14 04:25:16;;;;;;;;;;;;;;;18.06;66.10;99772.22;5404109;26;33611;-87
2022/05/14 04:27:46;;;;;;;;;;;;;;;18.43;64.87;99773.25;5404419;26;34351;-88
2022/05/14 04:30:15;;;;;;;;;;;;;;;18.56;64.44;99778.84;5403961;26;34367;-88
2022/05/14 04:32:47;;;;;;;;;;;;;;;18.64;63.90;99786.38;5405546;26;32859;-89
2022/05/14 04:35:16;;;;;;;;;;;;;;;18.44;64.58;99793.38;5409084;26;34063;-88
2022/05/14 04:37:45;;;;;;;;;;;;;;;18.38;65.29;99788.37;5404584;26;34212;-89
2022/05/14 04:40:14;;;;;;;;;;;;;;;18.74;63.89;99796.38;5404006;26;34608;-88
2022/05/14 04:42:43;;;;;;;;;;;;;;;18.91;63.60;99798.28;5404836;26;32711;-88
2022/05/14 04:45:11;;;;;;;;;;;;;;;19.39;61.53;99803.94;5403857;26;34224;-88
2022/05/14 04:47:40;;;;;;;;;;;;;;;19.47;61.09;99801.78;5410416;26;34273;-89
2022/05/14 04:50:11;;;;;;;;;;;;;;;19.59;60.55;99808.25;5404286;26;33896;-88
2022/05/14 04:52:40;;;;;;;;;;;;;;;19.65;60.36;99805.34;5404327;26;32828;-89
2022/05/14 04:55:09;;;;;;;;;;;;;;;19.79;59.97;99800.28;5404115;26;33685;-88
2022/05/14 04:57:40;;;;;;;;;;;;;;;20.16;58.61;99805.47;5404250;26;35185;-88
2022/05/14 05:00:10;;;;;;;;;;;;;;;20.57;57.05;99805.16;5410007;26;33874;-88
2022/05/14 05:05:27;;;;;;;;;;;;;;;21.12;55.19;99809.22;5403726;26;33545;-89
2022/05/14 05:07:56;;;;;;;;;;;;;;;21.43;54.33;99817.19;5402130;26;34864;-88
2022/05/14 05:10:25;;;;;;;;;;;;;;;21.87;52.09;99820.88;5403592;26;34953;-89
2022/05/14 05:12:54;;;;;;;;;;;;;;;22.10;51.53;99824.81;5409333;26;33149;-89
2022/05/14 05:15:23;;;;;;;;;;;;;;;22.13;51.32;99828.13;5403339;26;34586;-89
2022/05/14 05:17:51;;;;;;;;;;;;;;;22.10;51.67;99827.44;5405397;26;33696;-88
2022/05/14 05:20:19;;;;;;;;;;;;;;;22.36;51.12;99836.50;5406896;26;34144;-89
2022/05/14 05:22:49;;;;;;;;;;;;;;;22.63;50.58;99835.78;5410721;26;33032;-89
2022/05/14 05:25:20;;;;;;;;;;;;;;;22.31;50.91;99842.06;5403569;26;33718;-88
2022/05/14 05:27:49;;;;;;;;;;;;;;;22.18;51.30;99843.72;5404859;26;34329;-89
2022/05/14 05:30:17;;;;;;;;;;;;;;;21.98;52.12;99838.75;5404284;26;33807;-89
2022/05/14 05:32:46;;;;;;;;;;;;;;;21.52;52.62;99844.84;5405066;26;34363;-89
2022/05/14 05:35:15;;;;;;;;;;;;;;;21.28;53.62;99845.22;5409902;26;33823;-89
2022/05/14 05:37:46;;;;;;;;;;;;;;;21.46;53.15;99850.47;5405512;26;34213;-89
2022/05/14 05:40:17;;;;;;;;;;;;;;;21.53;52.41;99854.50;5405698;26;34527;-89
2022/05/14 05:42:45;;;;;;;;;;;;;;;21.54;52.79;99855.34;5401838;26;34833;-89
2022/05/14 05:45:15;;;;;;;;;;;;;;;21.62;51.81;99864.50;5400417;26;34871;-89
2022/05/14 05:47:44;;;;;;;;;;;;;;;21.54;51.75;99861.47;5408676;26;34494;-89
2022/05/14 05:50:13;;;;;;;;;;;;;;;21.33;52.75;99859.97;5401409;26;33890;-89
2022/05/14 05:52:42;;;;;;;;;;;;;;;21.15;51.85;99865.31;5383418;26;33609;-89
2022/05/14 05:57:58;;;;;;;;;;;;;;;21.08;51.78;99869.22;5404835;26;34045;-89
2022/05/14 06:00:28;;;;;;;;;;;;;;;21.19;51.58;99866.88;5409582;26;36401;-90
2022/05/14 06:02:58;;;;;;;;;;;;;;;20.97;52.06;99867.19;5384355;26;33655;-89
2022/05/14 06:05:26;;;;;;;;;;;;;;;20.94;52.49;99869.09;5404558;26;34208;-89
2022/05/14 06:07:55;;;;;;;;;;;;;;;20.88;51.64;99862.38;5403614;26;34973;-91
2022/05/14 06:10:24;;;;;;;;;;;;;;;20.88;51.47;99876.41;5383337;26;34301;-89
2022/05/14 06:12:53;;;;;;;;;;;;;;;20.44;51.86;99876.03;5408370;26;32720;-89
2022/05/14 06:15:25;;;;;;;;;;;;;;;20.34;51.97;99878.28;5389014;26;35566;-89
2022/05/14 06:18:02;;;;;;;;;;;;;;;20.37;51.20;99883.41;5383236;26;34028;-88
2022/05/14 06:20:32;;;;;;;;;;;;;;;20.82;50.33;99878.50;5383931;26;34904;-89
2022/05/14 06:23:02;;;;;;;;;;;;;;;20.58;49.96;99880.63;5403243;26;36057;-90
2022/05/14 06:25:31;;;;;;;;;;;;;;;20.83;48.90;99885.50;5404437;26;34292;-89
2022/05/14 06:27:59;;;;;;;;;;;;;;;20.36;49.47;99881.69;5409756;26;34145;-88
2022/05/14 06:30:30;;;;;;;;;;;;;;;20.37;48.35;99886.06;5404580;26;33454;-89
2022/05/14 06:33:01;;;;;;;;;;;;;;;20.11;48.00;99879.44;5404789;26;33845;-89
2022/05/14 06:35:30;;;;;;;;;;;;;;;20.21;47.77;99885.13;5404069;26;33931;-89
2022/05/14 06:37:58;;;;;;;;;;;;;;;20.39;47.76;99884.22;5405884;26;33845;-88
2022/05/14 06:40:27;;;;;;;;;;;;;;;20.53;47.62;99885.25;5409498;26;34436;-89
2022/05/14 06:42:55;;;;;;;;;;;;;;;20.60;46.84;99890.16;5406698;26;33332;-89
2022/05/14 06:45:24;;;;;;;;;;;;;;;20.76;46.20;99884.97;5404154;26;33751;-88
2022/05/14 06:47:56;;;;;;;;;;;;;;;20.99;45.58;99883.75;5404267;26;34008;-90
2022/05/14 06:50:25;;;;;;;;;;;;;;;20.82;44.95;99889.91;5382883;26;34703;-89
2022/05/14 06:52:57;;;;;;;;;;;;;;;21.04;44.69;99894.06;5403545;26;34305;-89
2022/05/14 06:55:27;;;;;;;;;;;;;;;20.66;45.31;99900.41;5407797;26;34192;-89
2022/05/14 06:57:56;;;;;;;;;;;;;;;20.60;45.16;99899.88;5403578;26;33699;-90
2022/05/14 07:00:25;;;;;;;;;;;;;;;20.46;45.36;99898.78;5403789;26;35147;-89
2022/05/14 07:06:37;;;;;;;;;;;;;;;20.59;46.24;99908.72;5405003;26;33668;-90
2022/05/14 07:08:31;;;;;;;;;;;;;;;20.59;44.96;99911.34;5387305;26;34898;-89
2022/05/14 07:11:00;;;;;;;;;;;;;;;20.62;44.30;99905.91;5408526;26;35326;-91
2022/05/14 07:13:29;;;;;;;;;;;;;;;20.63;45.31;99910.25;5383225;26;34196;-89
2022/05/14 07:16:00;;;;;;;;;;;;;;;20.53;44.69;99909.84;5382103;26;34476;-89
2022/05/14 07:18:29;;;;;;;;;;;;;;;20.77;44.17;99907.75;5405459;26;35045;-88
2022/05/14 07:20:59;;;;;;;;;;;;;;;20.98;44.30;99918.13;5403768;26;34076;-89
2022/05/14 07:23:29;;;;;;;;;;;;;;;21.16;43.18;99921.56;5405490;26;34482;-89
2022/05/14 07:26:01;;;;;;;;;;;;;;;21.14;42.92;99910.25;5387093;26;34343;-89
2022/05/14 07:28:31;;;;;;;;;;;;;;;21.16;41.34;99918.94;5404973;26;34245;-90
2022/05/14 07:31:03;;;;;;;;;;;;;;;21.13;42.06;99908.56;5385113;26;37266;-89
2022/05/14 07:33:31;;;;;;;;;;;;;;;21.25;41.66;99911.38;5403951;26;34261;-89
2022/05/14 07:36:02;;;;;;;;;;;;;;;21.04;41.30;99910.72;5404547;26;33939;-89
2022/05/14 07:38:32;;;;;;;;;;;;;;;20.89;42.55;99917.66;5410221;26;33963;-89
2022/05/14 08:34:56;;;;;;;;;;;;;;;21.55;34.45;99915.94;5100653;28;34841;-89
2022/05/14 17:04:30;;;;;;;;;;;;;;;24.45;26.71;99659.63;5409736;26;34570;-89
2022/05/14 17:07:02;;;;;;;;;;;;;;;24.23;27.22;99681.50;5385573;26;33264;-89
2022/05/14 17:09:36;;;;;;;;;;;;;;;24.17;27.69;99676.62;5406104;26;34196;-89
2022/05/14 17:12:06;;;;;;;;;;;;;;;24.11;27.70;99674.41;5406073;26;34061;-89
2022/05/14 17:14:34;;;;;;;;;;;;;;;24.11;27.48;99674.41;5406290;26;33761;-89
2022/05/14 17:17:23;;;;;;;;;;;;;;;24.02;27.93;99681.19;5406236;26;34032;-89
2022/05/14 17:19:52;;;;;;;;;;;;;;;24.03;27.97;99674.94;5411090;26;34078;-87
2022/05/14 17:22:21;;;;;;;;;;;;;;;23.78;28.37;99682.91;5406285;26;34949;-89
2022/05/14 17:24:50;;;;;;;;;;;;;;;24.06;28.16;99682.66;5406592;26;34696;-88
2022/05/14 17:27:18;;;;;;;;;;;;;;;23.74;28.30;99684.03;5405881;26;33945;-88
2022/05/14 17:29:46;;;;;;;;;;;;;;;23.71;28.53;99686.88;5405601;26;34975;-88
2022/05/14 17:32:15;;;;;;;;;;;;;;;23.50;28.52;99697.09;5410694;26;34280;-88
2022/05/14 17:34:43;;;;;;;;;;;;;;;23.38;28.84;99696.13;5405604;26;34827;-88
2022/05/14 17:39:59;;;;;;;;;;;;;;;23.10;29.52;99703.22;5406202;26;34258;-88
2022/05/14 17:42:29;;;;;;;;;;;;;;;22.89;29.78;99712.50;5405227;26;34208;-88
2022/05/14 17:44:57;;;;;;;;;;;;;;;22.82;29.87;99708.56;5405771;26;33567;-89
2022/05/14 17:47:26;;;;;;;;;;;;;;;22.74;30.20;99717.84;5410078;26;33110;-88
2022/05/14 17:49:54;;;;;;;;;;;;;;;22.62;30.35;99723.91;5405443;26;34229;-88
2022/05/14 17:52:25;;;;;;;;;;;;;;;22.71;30.16;99719.81;5405193;26;34260;-89
2022/05/14 17:54:53;;;;;;;;;;;;;;;22.74;30.49;99725.75;5406159;26;33405;-89
2022/05/14 17:57:22;;;;;;;;;;;;;;;23.05;30.05;99725.63;5404860;26;33142;-88
2022/05/14 17:59:50;;;;;;;;;;;;;;;23.03;29.90;99731.03;5410917;26;34204;-88
2022/05/14 18:02:19;;;;;;;;;;;;;;;22.89;30.48;99731.88;5404844;26;35197;-89
2022/05/14 18:04:48;;;;;;;;;;;;;;;22.67;30.59;99734.19;5405383;26;34203;-88
2022/05/14 18:07:17;;;;;;;;;;;;;;;22.71;30.67;99731.25;5405297;26;33945;-88
2022/05/14 18:09:46;;;;;;;;;;;;;;;22.49;31.09;99739.66;5405009;26;34372;-88
2022/05/14 18:12:17;;;;;;;;;;;;;;;22.33;31.33;99745.03;5388236;26;37426;-88
2022/05/14 18:14:45;;;;;;;;;;;;;;;22.53;30.99;99750.91;5410350;26;34649;-88
2022/05/14 18:17:14;;;;;;;;;;;;;;;22.23;31.58;99748.31;5404544;26;34251;-88
2022/05/14 18:19:42;;;;;;;;;;;;;;;22.41;31.47;99747.22;5405074;26;34950;-88
2022/05/14 18:22:11;;;;;;;;;;;;;;;22.53;31.08;99751.75;5404634;26;33998;-88
2022/05/14 18:24:39;;;;;;;;;;;;;;;22.40;31.67;99752.59;5405008;26;34908;-88
2022/05/14 18:27:11;;;;;;;;;;;;;;;22.49;31.73;99752.88;5410571;26;33462;-88
2022/05/14 18:29:39;;;;;;;;;;;;;;;22.48;32.07;99763.56;5405228;26;34144;-88
2022/05/14 18:32:09;;;;;;;;;;;;;;;22.49;32.34;99760.81;5405991;26;34196;-88
2022/05/14 18:34:37;;;;;;;;;;;;;;;22.48;32.53;99763.56;5404241;26;33933;-88
2022/05/14 18:37:06;;;;;;;;;;;;;;;22.28;32.94;99770.06;5405095;26;33924;-88
2022/05/14 18:39:41;;;;;;;;;;;;;;;22.36;32.84;99773.09;5411142;26;34005;-88
2022/05/14 18:42:11;;;;;;;;;;;;;;;22.34;32.77;99778.44;5405058;26;33912;-88
2022/05/14 18:44:41;;;;;;;;;;;;;;;22.23;33.05;99778.28;5405185;26;33631;-88
2022/05/14 18:47:09;;;;;;;;;;;;;;;22.41;32.87;99791.31;5404992;26;32972;-88
2022/05/14 18:49:38;;;;;;;;;;;;;;;22.35;32.87;99789.91;5404453;26;34780;-88
2022/05/14 18:52:07;;;;;;;;;;;;;;;22.44;32.69;99794.59;5406342;26;35177;-88
2022/05/14 18:54:36;;;;;;;;;;;;;;;22.31;32.89;99791.00;5410517;26;34253;-89
2022/05/14 18:57:05;;;;;;;;;;;;;;;22.31;32.94;99793.66;5405257;26;33832;-88
2022/05/14 18:59:38;;;;;;;;;;;;;;;22.25;34.00;99791.38;5404548;26;34890;-88
2022/05/14 19:02:09;;;;;;;;;;;;;;;22.23;33.34;99801.19;5404787;26;35157;-87
2022/05/14 19:07:27;;;;;;;;;;;;;;;22.25;33.54;99797.50;5406746;26;33311;-88
2022/05/14 19:09:56;;;;;;;;;;;;;;;22.19;34.81;99803.13;5410047;26;34237;-88
2022/05/14 19:12:25;;;;;;;;;;;;;;;22.04;35.46;99796.97;5404207;26;33797;-89
2022/05/14 19:14:59;;;;;;;;;;;;;;;22.15;35.36;99805.09;5404585;26;33952;-88
2022/05/14 19:17:28;;;;;;;;;;;;;;;22.27;34.51;99802.69;5404649;26;33105;-88
2022/05/14 19:19:57;;;;;;;;;;;;;;;21.98;34.06;99796.47;5404208;26;33862;-88
2022/05/14 19:22:27;;;;;;;;;;;;;;;21.84;34.77;99799.91;5410396;26;34386;-88
2022/05/14 19:24:56;;;;;;;;;;;;;;;21.79;35.80;99794.87;5404643;26;33939;-87
2022/05/14 19:27:24;;;;;;;;;;;;;;;21.85;34.97;99796.34;5404594;26;33070;-88
2022/05/14 19:29:53;;;;;;;;;;;;;;;21.73;34.62;99793.47;5404253;26;34627;-88
2022/05/14 19:32:23;;;;;;;;;;;;;;;21.58;35.10;99793.50;5404192;26;34550;-88
2022/05/14 19:34:52;;;;;;;;;;;;;;;21.24;35.65;99790.94;5410346;26;34930;-88
2022/05/14 19:37:21;;;;;;;;;;;;;;;21.38;35.26;99790.16;5404271;26;33436;-88
2022/05/14 19:39:50;;;;;;;;;;;;;;;21.28;35.47;99787.19;5402379;26;34487;-88
2022/05/14 19:42:19;;;;;;;;;;;;;;;21.20;35.59;99792.03;5404953;26;33909;-88
2022/05/14 19:44:49;;;;;;;;;;;;;;;21.00;36.37;99781.75;5403987;26;33972;-89
2022/05/14 19:47:21;;;;;;;;;;;;;;;20.85;37.01;99786.94;5407414;26;32924;-87
2022/05/14 19:49:52;;;;;;;;;;;;;;;20.80;37.12;99791.59;5410291;26;34110;-88
2022/05/14 19:52:26;;;;;;;;;;;;;;;20.80;37.05;99783.69;5400384;26;35682;-88
2022/05/14 19:55:08;;;;;;;;;;;;;;;20.68;37.05;99794.87;5402729;26;34820;-89
2022/05/14 19:57:40;;;;;;;;;;;;;;;20.66;38.07;99794.13;5381136;26;32647;-88
2022/05/14 20:00:09;;;;;;;;;;;;;;;20.56;38.43;99792.88;5401508;26;35000;-87
2022/05/14 20:02:55;;;;;;;;;;;;;;;20.35;38.79;99795.69;5331179;26;34235;-87
2022/05/14 20:05:25;;;;;;;;;;;;;;;20.28;38.92;99790.81;5337164;26;33757;-89
2022/05/14 20:07:53;;;;;;;;;;;;;;;20.34;38.36;99796.59;5331685;26;33470;-88
2022/05/14 20:10:22;;;;;;;;;;;;;;;20.32;38.51;99795.00;5331849;26;34048;-88
2022/05/14 20:12:53;;;;;;;;;;;;;;;20.22;38.40;99795.50;5332158;26;32889;-89
2022/05/14 20:15:21;;;;;;;;;;;;;;;20.19;38.34;99792.12;5329549;26;34821;-88
2022/05/14 20:24:03;;;;;;;;;;;;;;;19.55;39.68;99799.66;5321675;26;35986;-88
2022/05/14 20:26:32;;;;;;;;;;;;;;;19.31;40.59;99796.44;5337068;26;34243;-88
2022/05/14 20:29:08;;;;;;;;;;;;;;;19.22;41.01;99802.13;5332343;26;33315;-87
2022/05/14 20:41:47;;;;;;;;;;;;;;;19.62;40.64;99805.50;5241016;26;33758;-87
2022/05/14 20:44:38;;;;;;;;;;;;;;;19.80;39.62;99804.59;5310527;26;34395;-87
2022/05/14 20:47:06;;;;;;;;;;;;;;;19.70;39.99;99802.50;5329690;26;34086;-88
2022/05/14 20:49:35;;;;;;;;;;;;;;;19.74;39.72;99804.03;5328826;26;33899;-87
2022/05/14 20:52:04;;;;;;;;;;;;;;;19.79;40.43;99807.31;5335201;26;33359;-88
2022/05/14 20:54:35;;;;;;;;;;;;;;;19.69;39.91;99803.41;5336177;26;34681;-88
2022/05/14 20:57:05;;;;;;;;;;;;;;;19.70;39.89;99805.13;5330721;26;34202;-87
2022/05/14 20:59:33;;;;;;;;;;;;;;;19.64;39.91;99795.72;5331096;26;36109;-88
2022/05/14 21:02:02;;;;;;;;;;;;;;;19.85;39.19;99804.38;5331434;26;32945;-88
2022/05/14 21:04:31;;;;;;;;;;;;;;;19.61;40.36;99809.87;5337031;26;33683;-89
2022/05/14 21:07:00;;;;;;;;;;;;;;;19.55;40.73;99810.19;5334837;26;34644;-88
2022/05/14 21:09:30;;;;;;;;;;;;;;;19.66;40.76;99804.38;5333049;26;33630;-88
2022/05/14 21:11:58;;;;;;;;;;;;;;;19.78;40.69;99809.09;5345287;26;32657;-88
2022/05/14 21:14:28;;;;;;;;;;;;;;;19.68;40.91;99802.56;5400239;26;34698;-89
2022/05/14 21:16:56;;;;;;;;;;;;;;;19.57;41.16;99816.25;5404314;26;34056;-87
2022/05/14 21:19:25;;;;;;;;;;;;;;;19.40;41.72;99809.16;5410059;26;33682;-89
2022/05/14 21:21:54;;;;;;;;;;;;;;;19.48;41.54;99811.41;5402767;26;32817;-88
2022/05/14 21:24:26;;;;;;;;;;;;;;;19.48;41.58;99814.03;5403853;26;34858;-88
2022/05/14 21:26:54;;;;;;;;;;;;;;;19.48;41.53;99819.31;5402285;26;34922;-88
2022/05/14 21:29:23;;;;;;;;;;;;;;;19.33;42.17;99814.75;5403889;26;34237;-88
2022/05/14 21:31:53;;;;;;;;;;;;;;;19.24;42.37;99821.31;5410030;26;33428;-88
2022/05/14 21:39:53;;;;;;;;;;;;;;;19.17;42.12;99826.00;5402713;26;34696;-88
2022/05/14 21:42:22;;;;;;;;;;;;;;;19.20;41.69;99819.75;5402882;26;33219;-87
2022/05/14 21:44:50;;;;;;;;;;;;;;;19.29;40.89;99819.31;5403090;26;34472;-88
2022/05/14 21:47:20;;;;;;;;;;;;;;;19.16;41.13;99829.56;5408768;26;33918;-88
2022/05/14 21:49:49;;;;;;;;;;;;;;;19.20;40.73;99819.75;5403628;26;33649;-88
2022/05/14 21:52:17;;;;;;;;;;;;;;;19.03;40.91;99825.78;5403900;26;33339;-88
2022/05/14 21:54:46;;;;;;;;;;;;;;;19.42;39.65;99830.09;5403523;26;34265;-87
2022/05/14 21:57:15;;;;;;;;;;;;;;;19.23;40.09;99824.00;5403705;26;34608;-88
2022/05/14 21:59:44;;;;;;;;;;;;;;;19.24;40.15;99828.34;5408911;26;34215;-87
2022/05/14 22:02:16;;;;;;;;;;;;;;;18.95;40.92;99835.81;5408575;26;32800;-88
2022/05/14 22:04:48;;;;;;;;;;;;;;;19.08;41.06;99834.31;5403425;26;33441;-88
2022/05/14 22:07:17;;;;;;;;;;;;;;;18.83;41.71;99831.97;5402925;26;33596;-87
2022/05/14 22:09:46;;;;;;;;;;;;;;;18.80;41.99;99837.34;5402801;26;33811;-89
2022/05/14 22:12:15;;;;;;;;;;;;;;;18.69;42.24;99831.69;5406460;26;34030;-88
2022/05/14 22:14:44;;;;;;;;;;;;;;;18.47;42.87;99829.16;5409587;26;34452;-88
2022/05/14 22:17:12;;;;;;;;;;;;;;;18.34;43.32;99834.09;5403951;26;34571;-88
2022/05/14 22:19:41;;;;;;;;;;;;;;;18.17;43.74;99834.81;5404180;26;34255;-88
2022/05/14 22:22:11;;;;;;;;;;;;;;;18.37;43.26;99827.84;5402787;26;33339;-88
2022/05/14 22:24:39;;;;;;;;;;;;;;;18.29;43.97;99839.53;5383309;26;33666;-88
2022/05/14 22:27:08;;;;;;;;;;;;;;;18.39;44.07;99836.50;5409278;26;33858;-87
2022/05/14 22:29:36;;;;;;;;;;;;;;;18.33;43.91;99829.72;5403727;26;33222;-88
2022/05/14 22:32:05;;;;;;;;;;;;;;;18.42;43.75;99829.34;5404363;26;32970;-87
2022/05/14 22:34:35;;;;;;;;;;;;;;;18.22;44.29;99835.47;5402956;26;34230;-88
2022/05/14 22:37:04;;;;;;;;;;;;;;;18.36;43.87;99824.34;5404114;26;33672;-87
2022/05/14 22:40:56;;;;;;;;;;;;;;;18.48;43.97;99828.22;5409792;26;33865;-88
2022/05/14 22:42:21;;;;;;;;;;;;;;;18.44;44.13;99821.41;5409429;26;33407;-89
2022/05/14 22:44:50;;;;;;;;;;;;;;;18.46;44.48;99827.44;5404113;26;33920;-88
2022/05/14 22:47:18;;;;;;;;;;;;;;;18.20;45.40;99831.19;5403824;26;35234;-88
2022/05/14 22:49:47;;;;;;;;;;;;;;;18.45;44.47;99837.09;5402973;26;34410;-87
2022/05/14 22:52:17;;;;;;;;;;;;;;;18.30;44.58;99841.22;5403226;26;33352;-89
2022/05/14 22:54:46;;;;;;;;;;;;;;;18.10;45.18;99833.34;5409004;26;34484;-88
2022/05/14 22:57:15;;;;;;;;;;;;;;;17.78;45.50;99824.97;5403090;26;33442;-87
2022/05/14 22:59:44;;;;;;;;;;;;;;;17.96;45.43;99833.06;5403563;26;34171;-89
2022/05/14 23:02:16;;;;;;;;;;;;;;;17.93;45.22;99828.81;5403337;26;33454;-87
2022/05/14 23:04:46;;;;;;;;;;;;;;;18.10;44.89;99826.31;5404428;26;35209;-89
2022/05/14 23:07:15;;;;;;;;;;;;;;;17.87;45.61;99827.25;5406354;26;34037;-88